Time;durP1;ratioP1;P1;durP2;ratioP2;P2;SDS_P1;SDS_P2;PMS_P1;PMS_P2;Temp;Humidity;BMP_temperature;BMP_pressure;BME280_temperature;BME280_humidity;BME280_pressure;Samples;Min_cycle;Max_cycle;Signal;HPM_P1;HPM_P2
2022/01/13 00:00:15;;;;;;;;;;;;;;;14.81;59.88;103763.84;1053900;28;1910;-59
2022/01/13 00:01:05;;;;;;;;;;;;;;;14.80;60.15;103762.09;1053860;28;685;-59
2022/01/13 00:01:56;;;;;;;;;;;;;;;14.80;60.04;103765.66;1053394;28;662;-60
2022/01/13 00:02:47;;;;;;;;;;;;;;;14.79;59.56;103763.91;1053792;28;841;-59
2022/01/13 00:03:37;;;;;;;;;;;;;;;14.80;59.79;103759.41;1055052;28;660;-59
2022/01/13 00:04:28;;;;;;;;;;;;;;;14.79;59.58;103758.53;1053797;28;732;-59
2022/01/13 00:05:25;;;;;;;;;;;;;;;14.78;60.08;103758.59;1054405;28;845;-59
2022/01/13 00:06:16;;;;;;;;;;;;;;;14.77;59.51;103760.41;1054476;28;721;-59
2022/01/13 00:07:06;;;;;;;;;;;;;;;14.77;60.09;103763.09;1053744;28;1882;-59
2022/01/13 00:07:58;;;;;;;;;;;;;;;14.77;59.84;103765.78;1054931;28;822;-59
2022/01/13 00:08:48;;;;;;;;;;;;;;;14.75;59.93;103767.63;1054986;28;652;-59
2022/01/13 00:09:39;;;;;;;;;;;;;;;14.75;60.28;103767.63;1053717;28;700;-59
2022/01/13 00:10:29;;;;;;;;;;;;;;;14.76;60.20;103765.81;1054413;28;774;-59
2022/01/13 00:11:19;;;;;;;;;;;;;;;14.76;59.81;103764.00;1049251;28;815;-60
2022/01/13 00:12:12;;;;;;;;;;;;;;;14.77;60.18;103764.88;1049298;28;735;-59
2022/01/13 00:13:06;;;;;;;;;;;;;;;14.75;60.03;103767.63;1053796;28;782;-59
2022/01/13 00:15:48;;;;;;;;;;;;;;;14.75;59.81;103762.25;1054377;28;825;-59
2022/01/13 00:18:15;;;;;;;;;;;;;;;14.73;59.44;103766.81;1058545;28;724;-59
2022/01/13 00:20:20;;;;;;;;;;;;;;;14.73;59.83;103764.13;1058536;28;1948;-59
2022/01/13 00:21:17;;;;;;;;;;;;;;;14.73;59.88;103764.13;1058522;28;759;-60
2022/01/13 00:24:19;;;;;;;;;;;;;;;14.74;59.74;103756.94;1058519;28;759;-59
2022/01/13 00:25:12;;;;;;;;;;;;;;;14.73;59.73;103758.75;1057942;28;760;-59
2022/01/13 00:26:07;;;;;;;;;;;;;;;14.73;59.76;103764.13;1057950;28;884;-59
2022/01/13 00:26:58;;;;;;;;;;;;;;;14.73;60.13;103765.94;1053334;28;996;-59
2022/01/13 00:27:54;;;;;;;;;;;;;;;14.73;59.85;103757.88;1053368;28;880;-59
2022/01/13 00:28:47;;;;;;;;;;;;;;;14.74;59.84;103757.81;1058099;28;672;-59
2022/01/13 00:29:40;;;;;;;;;;;;;;;14.73;59.85;103752.50;1057984;28;775;-59
2022/01/13 00:30:31;;;;;;;;;;;;;;;14.73;60.36;103756.06;1058052;28;629;-59
2022/01/13 00:31:25;;;;;;;;;;;;;;;14.73;60.20;103756.06;1058080;28;882;-59
2022/01/13 00:32:16;;;;;;;;;;;;;;;14.72;59.77;103757.00;1057862;28;947;-59
2022/01/13 00:33:08;;;;;;;;;;;;;;;14.72;59.65;103750.75;1058001;28;748;-59
2022/01/13 00:33:58;;;;;;;;;;;;;;;14.71;60.25;103755.25;1058013;28;846;-59
2022/01/13 00:34:49;;;;;;;;;;;;;;;14.72;59.77;103753.44;1057935;28;778;-59
2022/01/13 00:35:39;;;;;;;;;;;;;;;14.70;60.21;103753.47;1057088;28;1933;-60
2022/01/13 00:36:30;;;;;;;;;;;;;;;14.70;60.16;103753.47;1054225;28;885;-59
2022/01/13 00:37:20;;;;;;;;;;;;;;;14.68;60.35;103750.00;1054888;28;715;-60
2022/01/13 00:38:10;;;;;;;;;;;;;;;14.68;59.96;103760.75;1054274;28;814;-60
2022/01/13 00:39:01;;;;;;;;;;;;;;;14.69;59.94;103750.88;1054297;28;712;-59
2022/01/13 00:39:51;;;;;;;;;;;;;;;14.68;60.42;103747.31;1054198;28;801;-59
2022/01/13 00:40:42;;;;;;;;;;;;;;;14.69;60.37;103750.88;1054776;28;1168;-59
2022/01/13 00:41:32;;;;;;;;;;;;;;;14.69;60.40;103754.41;1054741;28;1309;-60
2022/01/13 00:42:23;;;;;;;;;;;;;;;14.68;60.38;103744.63;1054829;28;823;-60
2022/01/13 00:43:13;;;;;;;;;;;;;;;14.69;60.40;103748.19;1054303;28;813;-59
2022/01/13 00:44:04;;;;;;;;;;;;;;;14.67;60.35;103748.25;1054251;28;835;-59
2022/01/13 00:44:54;;;;;;;;;;;;;;;14.67;60.62;103745.56;1054364;28;866;-59
2022/01/13 00:45:47;;;;;;;;;;;;;;;14.68;60.52;103744.63;1054981;28;1831;-59
2022/01/13 00:46:43;;;;;;;;;;;;;;;14.67;60.52;103742.00;1057807;28;934;-59
2022/01/13 00:47:35;;;;;;;;;;;;;;;14.67;59.88;103742.88;1057845;28;650;-59
2022/01/13 00:48:26;;;;;;;;;;;;;;;14.67;60.55;103748.25;1057903;28;676;-59
2022/01/13 00:49:16;;;;;;;;;;;;;;;14.68;60.29;103749.13;1057919;28;774;-59
2022/01/13 00:50:07;;;;;;;;;;;;;;;14.67;60.06;103737.50;1057402;28;745;-59
2022/01/13 00:50:57;;;;;;;;;;;;;;;14.67;60.44;103739.31;1057143;28;937;-59
2022/01/13 00:51:47;;;;;;;;;;;;;;;14.68;60.54;103746.44;1058388;28;652;-59
2022/01/13 00:52:38;;;;;;;;;;;;;;;14.68;60.46;103746.44;1057288;28;672;-59
2022/01/13 00:53:28;;;;;;;;;;;;;;;14.67;60.49;103744.69;1057264;28;771;-59
2022/01/13 00:54:19;;;;;;;;;;;;;;;14.67;60.17;103748.25;1054435;28;1787;-59
2022/01/13 00:55:14;;;;;;;;;;;;;;;14.66;60.59;103737.56;1055333;28;755;-59
2022/01/13 00:56:05;;;;;;;;;;;;;;;14.66;60.21;103746.50;1053816;28;653;-59
2022/01/13 00:56:55;;;;;;;;;;;;;;;14.65;60.08;103744.75;1052768;28;1039;-59
2022/01/13 00:57:46;;;;;;;;;;;;;;;14.65;60.58;103741.19;1053564;28;669;-59
2022/01/13 00:58:36;;;;;;;;;;;;;;;14.65;60.16;103749.22;1053525;28;1319;-59
2022/01/13 00:59:26;;;;;;;;;;;;;;;14.64;60.49;103748.34;1053356;28;782;-59
2022/01/13 01:00:18;;;;;;;;;;;;;;;14.64;60.18;103742.13;1053524;28;1901;-59
2022/01/13 01:01:08;;;;;;;;;;;;;;;14.65;60.09;103755.47;1053690;28;806;-59
2022/01/13 01:01:59;;;;;;;;;;;;;;;14.64;60.57;103753.72;1053589;28;657;-59
2022/01/13 01:02:49;;;;;;;;;;;;;;;14.64;61.02;103753.72;1053013;28;630;-59
2022/01/13 01:03:40;;;;;;;;;;;;;;;14.64;60.05;103756.41;1053196;28;692;-59
2022/01/13 01:04:30;;;;;;;;;;;;;;;14.64;60.10;103759.09;1058312;28;1794;-59
2022/01/13 01:05:20;;;;;;;;;;;;;;;14.64;60.12;103764.47;1057233;28;852;-59
2022/01/13 01:06:11;;;;;;;;;;;;;;;14.62;60.43;103755.59;1057135;28;743;-59
2022/01/13 01:07:01;;;;;;;;;;;;;;;14.62;60.37;103755.59;1057208;28;729;-59
2022/01/13 01:07:52;;;;;;;;;;;;;;;14.63;60.54;103761.81;1053207;28;832;-59
2022/01/13 01:08:43;;;;;;;;;;;;;;;14.63;60.56;103751.97;1053327;28;626;-59
2022/01/13 01:09:46;;;;;;;;;;;;;;;14.63;60.70;103760.03;1057643;28;827;-59
2022/01/13 01:10:37;;;;;;;;;;;;;;;14.63;60.92;103762.72;1057698;28;645;-59
2022/01/13 01:11:28;;;;;;;;;;;;;;;14.63;60.45;103754.66;1057866;28;854;-59
2022/01/13 01:12:18;;;;;;;;;;;;;;;14.63;60.20;103756.47;1057740;28;715;-59
2022/01/13 01:13:14;;;;;;;;;;;;;;;14.63;60.24;103768.06;1057806;28;956;-59
2022/01/13 01:14:07;;;;;;;;;;;;;;;14.64;60.54;103760.91;1057058;28;1791;-59
2022/01/13 01:14:58;;;;;;;;;;;;;;;14.63;60.52;103767.19;1057741;28;762;-59
2022/01/13 01:15:51;;;;;;;;;;;;;;;14.63;60.24;103760.03;1057701;28;977;-59
2022/01/13 01:16:41;;;;;;;;;;;;;;;14.63;60.73;103757.34;1057705;28;713;-59
2022/01/13 01:17:34;;;;;;;;;;;;;;;14.62;60.32;103763.63;1057047;28;799;-59
2022/01/13 01:19:25;;;;;;;;;;;;;;;14.62;60.34;103765.44;1058303;28;781;-59
2022/01/13 01:20:15;;;;;;;;;;;;;;;14.62;60.62;103765.44;1057684;28;1893;-59
2022/01/13 01:23:14;;;;;;;;;;;;;;;14.60;60.76;103770.84;1058321;28;696;-59
2022/01/13 01:24:31;;;;;;;;;;;;;;;14.59;60.53;103769.97;1057530;28;1838;-60
2022/01/13 01:25:33;;;;;;;;;;;;;;;14.59;60.06;103771.78;1054260;28;770;-59
2022/01/13 01:27:38;;;;;;;;;;;;;;;14.60;61.00;103765.50;1054051;28;622;-59
2022/01/13 01:28:38;;;;;;;;;;;;;;;14.59;60.27;103764.63;1053454;28;733;-59
2022/01/13 01:29:37;;;;;;;;;;;;;;;14.58;60.26;103770.03;1053681;28;715;-59
2022/01/13 01:30:38;;;;;;;;;;;;;;;14.58;60.33;103764.66;1049029;28;915;-59
2022/01/13 01:31:31;;;;;;;;;;;;;;;14.57;60.64;103762.91;1050204;28;625;-59
2022/01/13 01:32:21;;;;;;;;;;;;;;;14.58;60.58;103761.97;1054021;28;909;-59
2022/01/13 01:33:16;;;;;;;;;;;;;;;14.56;60.59;103764.72;1053629;28;756;-59
2022/01/13 01:35:04;;;;;;;;;;;;;;;14.59;60.36;103769.09;1058829;27;790;-59
2022/01/13 01:35:56;;;;;;;;;;;;;;;14.58;60.42;103759.31;1057712;28;723;-59
2022/01/13 01:36:46;;;;;;;;;;;;;;;14.59;60.03;103755.69;1053989;28;770;-59
2022/01/13 01:37:39;;;;;;;;;;;;;;;14.57;60.29;103753.06;1054215;28;676;-59
2022/01/13 01:38:29;;;;;;;;;;;;;;;14.58;60.91;103756.63;1053599;28;748;-59
2022/01/13 01:39:20;;;;;;;;;;;;;;;14.56;60.49;103750.41;1054076;28;708;-59
2022/01/13 01:40:10;;;;;;;;;;;;;;;14.58;60.69;103751.25;1054023;28;1972;-59
2022/01/13 01:41:01;;;;;;;;;;;;;;;14.57;60.50;103757.53;1054602;28;934;-59
2022/01/13 01:41:51;;;;;;;;;;;;;;;14.57;60.64;103754.84;1053993;28;1494;-59
2022/01/13 01:42:41;;;;;;;;;;;;;;;14.56;60.36;103747.75;1054592;28;716;-59
2022/01/13 01:43:32;;;;;;;;;;;;;;;14.56;60.54;103745.06;1054675;28;659;-59
2022/01/13 01:44:26;;;;;;;;;;;;;;;14.57;60.34;103752.19;1054436;28;1918;-59
2022/01/13 01:45:17;;;;;;;;;;;;;;;14.57;60.22;103746.81;1053514;28;868;-59
2022/01/13 01:46:07;;;;;;;;;;;;;;;14.57;60.23;103744.13;1056061;28;1735;-60
2022/01/13 01:46:58;;;;;;;;;;;;;;;14.55;61.07;103746.84;1057201;28;791;-59
2022/01/13 01:47:51;;;;;;;;;;;;;;;14.56;60.36;103745.06;1057775;28;860;-59
2022/01/13 01:48:42;;;;;;;;;;;;;;;14.56;60.94;103742.38;1058270;28;1390;-59
2022/01/13 01:49:38;;;;;;;;;;;;;;;14.55;60.21;103748.66;1058964;28;799;-59
2022/01/13 01:50:35;;;;;;;;;;;;;;;14.54;60.82;103752.28;1057842;28;683;-59
2022/01/13 01:51:25;;;;;;;;;;;;;;;14.54;60.77;103746.91;1057621;28;914;-59
2022/01/13 01:52:16;;;;;;;;;;;;;;;14.54;60.49;103742.41;1058689;28;707;-59
2022/01/13 01:53:06;;;;;;;;;;;;;;;14.53;60.98;103753.22;1049916;28;693;-59
2022/01/13 01:53:56;;;;;;;;;;;;;;;14.53;60.80;103750.53;1053005;28;720;-59
2022/01/13 01:54:47;;;;;;;;;;;;;;;14.53;60.29;103748.72;1052672;28;684;-60
2022/01/13 01:55:37;;;;;;;;;;;;;;;14.52;60.95;103752.34;1053367;28;906;-60
2022/01/13 01:56:28;;;;;;;;;;;;;;;14.51;60.62;103747.91;1053516;28;689;-60
2022/01/13 01:57:18;;;;;;;;;;;;;;;14.52;60.38;103748.78;1052783;28;792;-60
2022/01/13 01:58:10;;;;;;;;;;;;;;;14.50;60.40;103753.34;1052883;28;1284;-60
2022/01/13 01:59:04;;;;;;;;;;;;;;;14.49;60.63;103752.47;1052822;28;628;-60
2022/01/13 01:59:55;;;;;;;;;;;;;;;14.50;60.35;103748.84;1052191;28;964;-59
2022/01/13 02:00:47;;;;;;;;;;;;;;;14.52;60.89;103755.00;1052290;28;765;-59
2022/01/13 02:01:37;;;;;;;;;;;;;;;14.51;60.47;103761.31;1052659;28;737;-59
2022/01/13 02:02:29;;;;;;;;;;;;;;;14.50;60.39;103759.59;1054014;28;707;-60
2022/01/13 02:03:19;;;;;;;;;;;;;;;14.51;60.68;103753.25;1054124;28;711;-59
2022/01/13 02:04:10;;;;;;;;;;;;;;;14.50;60.24;103758.72;1054038;28;831;-59
2022/01/13 02:05:00;;;;;;;;;;;;;;;14.48;60.36;103752.50;1054093;28;746;-59
2022/01/13 02:05:51;;;;;;;;;;;;;;;14.48;60.47;103748.03;1054001;28;853;-59
2022/01/13 02:06:43;;;;;;;;;;;;;;;14.48;60.51;103745.34;1056167;28;1953;-59
2022/01/13 02:07:34;;;;;;;;;;;;;;;14.46;60.98;103746.31;1056559;28;741;-60
2022/01/13 02:08:24;;;;;;;;;;;;;;;14.46;61.10;103740.97;1056640;28;817;-60
2022/01/13 02:09:16;;;;;;;;;;;;;;;14.46;60.37;103738.28;1058331;28;791;-60
2022/01/13 02:10:07;;;;;;;;;;;;;;;14.46;60.75;103743.63;1057542;28;769;-60
2022/01/13 02:10:57;;;;;;;;;;;;;;;14.46;60.45;103743.63;1057614;28;634;-59
2022/01/13 02:11:52;;;;;;;;;;;;;;;14.46;60.78;103741.84;1057408;28;1047;-60
2022/01/13 02:12:46;;;;;;;;;;;;;;;14.46;60.75;103736.47;1057068;28;1844;-60
2022/01/13 02:13:44;;;;;;;;;;;;;;;14.48;60.35;103741.78;1053629;28;743;-60
2022/01/13 02:14:46;;;;;;;;;;;;;;;14.46;60.36;103736.47;1054344;28;866;-60
2022/01/13 02:16:01;;;;;;;;;;;;;;;14.45;60.75;103733.84;1054425;28;1088;-59
2022/01/13 02:16:52;;;;;;;;;;;;;;;14.46;61.01;103735.59;1054217;28;753;-59
2022/01/13 02:17:42;;;;;;;;;;;;;;;14.45;60.87;103732.03;1054372;28;622;-59
2022/01/13 02:18:33;;;;;;;;;;;;;;;14.46;60.30;103741.84;1053815;28;825;-59
2022/01/13 02:19:23;;;;;;;;;;;;;;;14.46;60.86;103732.91;1053524;28;824;-59
2022/01/13 02:20:14;;;;;;;;;;;;;;;14.45;60.45;103731.16;1054833;28;1941;-59
2022/01/13 02:21:05;;;;;;;;;;;;;;;14.46;60.38;103732.91;1053580;28;755;-59
2022/01/13 02:21:55;;;;;;;;;;;;;;;14.46;60.53;103732.91;1054129;28;770;-60
2022/01/13 02:22:46;;;;;;;;;;;;;;;14.45;60.66;103732.03;1057585;28;2377;-59
2022/01/13 02:23:36;;;;;;;;;;;;;;;14.46;60.46;103732.91;1058274;28;648;-59
2022/01/13 02:24:27;;;;;;;;;;;;;;;14.45;60.63;103731.16;1058183;28;2090;-60
2022/01/13 02:25:17;;;;;;;;;;;;;;;14.45;60.62;103725.78;1058348;28;753;-59
2022/01/13 02:26:09;;;;;;;;;;;;;;;14.44;60.45;103730.28;1058437;28;735;-59
2022/01/13 02:26:59;;;;;;;;;;;;;;;14.43;60.68;103728.53;1057638;28;1159;-60
2022/01/13 02:27:49;;;;;;;;;;;;;;;14.44;60.39;103734.75;1057891;28;692;-59
2022/01/13 02:28:41;;;;;;;;;;;;;;;14.43;60.35;103723.16;1057997;28;744;-60
2022/01/13 02:29:31;;;;;;;;;;;;;;;14.44;60.47;103729.41;1058306;28;719;-59
2022/01/13 02:30:21;;;;;;;;;;;;;;;14.42;60.33;103724.09;1057789;28;717;-59
2022/01/13 02:31:12;;;;;;;;;;;;;;;14.43;60.37;103723.16;1054872;28;2354;-59
2022/01/13 02:32:03;;;;;;;;;;;;;;;14.42;60.75;103726.78;1054736;28;1051;-59
2022/01/13 02:32:53;;;;;;;;;;;;;;;14.42;60.80;103720.53;1055376;28;949;-59
2022/01/13 02:33:44;;;;;;;;;;;;;;;14.42;60.27;103725.88;1055448;28;688;-59
2022/01/13 02:34:34;;;;;;;;;;;;;;;14.41;60.20;103725.00;1054734;28;673;-60
2022/01/13 02:35:24;;;;;;;;;;;;;;;14.42;61.07;103723.22;1054822;28;814;-59
2022/01/13 02:36:15;;;;;;;;;;;;;;;14.40;60.31;103725.03;1054815;28;739;-59
2022/01/13 02:37:05;;;;;;;;;;;;;;;14.40;60.37;103722.34;1054691;28;776;-60
2022/01/13 02:37:56;;;;;;;;;;;;;;;14.41;60.21;103724.13;1058281;28;1491;-60
2022/01/13 02:38:46;;;;;;;;;;;;;;;14.40;60.38;103725.03;1058975;28;786;-60
2022/01/13 02:39:37;;;;;;;;;;;;;;;14.40;60.90;103723.25;1057829;28;897;-60
2022/01/13 02:40:27;;;;;;;;;;;;;;;14.40;60.59;103725.03;1058933;28;1898;-60
2022/01/13 02:41:17;;;;;;;;;;;;;;;14.39;60.79;103716.09;1052989;28;1664;-60
2022/01/13 02:42:14;;;;;;;;;;;;;;;14.39;60.78;103715.22;1054793;28;715;-60
2022/01/13 02:43:05;;;;;;;;;;;;;;;14.39;61.02;103712.53;1054790;28;756;-59
2022/01/13 02:43:56;;;;;;;;;;;;;;;14.40;60.87;103712.53;1054747;28;978;-59
2022/01/13 02:44:50;;;;;;;;;;;;;;;14.41;59.99;103713.41;1054774;28;644;-60
2022/01/13 02:45:52;;;;;;;;;;;;;;;14.41;60.54;103710.72;1054698;28;845;-59
2022/01/13 02:48:30;;;;;;;;;;;;;;;14.40;60.51;103708.94;1057814;28;667;-59
2022/01/13 02:49:21;;;;;;;;;;;;;;;14.40;60.35;103716.97;1057667;28;826;-60
2022/01/13 02:50:11;;;;;;;;;;;;;;;14.37;60.50;103707.22;1057870;28;770;-59
2022/01/13 02:51:01;;;;;;;;;;;;;;;14.37;60.53;103709.03;1055164;28;1841;-60
2022/01/13 02:51:52;;;;;;;;;;;;;;;14.36;60.50;103708.16;1054194;28;734;-59
2022/01/13 02:52:42;;;;;;;;;;;;;;;14.35;60.51;103714.44;1054648;28;622;-59
2022/01/13 02:53:33;;;;;;;;;;;;;;;14.36;60.36;103708.16;1054820;28;696;-59
2022/01/13 02:54:23;;;;;;;;;;;;;;;14.34;61.09;103706.44;1054818;28;814;-59
2022/01/13 02:55:13;;;;;;;;;;;;;;;14.33;60.77;103712.78;1054667;28;871;-59
2022/01/13 02:56:05;;;;;;;;;;;;;;;14.31;60.73;103712.84;1054685;28;939;-59
2022/01/13 02:56:55;;;;;;;;;;;;;;;14.32;60.75;103714.59;1054520;28;1053;-60
2022/01/13 02:57:46;;;;;;;;;;;;;;;14.33;60.48;103707.41;1054588;28;681;-59
2022/01/13 02:58:36;;;;;;;;;;;;;;;14.32;60.90;103714.59;1054078;28;1304;-59
2022/01/13 02:59:26;;;;;;;;;;;;;;;14.33;60.64;103712.78;1054683;28;682;-59
2022/01/13 03:00:17;;;;;;;;;;;;;;;14.34;60.66;103712.69;1054557;28;1972;-59
2022/01/13 03:01:07;;;;;;;;;;;;;;;14.35;60.28;103710.88;1055354;28;707;-60
2022/01/13 03:01:58;;;;;;;;;;;;;;;14.33;60.10;103702.91;1054695;28;720;-60
2022/01/13 03:02:48;;;;;;;;;;;;;;;14.34;60.25;103709.13;1054619;28;809;-60
2022/01/13 03:03:39;;;;;;;;;;;;;;;14.34;60.35;103714.50;1054021;28;683;-60
2022/01/13 03:04:30;;;;;;;;;;;;;;;14.33;60.75;103710.94;1054643;28;833;-60
2022/01/13 03:05:20;;;;;;;;;;;;;;;14.33;60.78;103710.94;1054002;28;729;-60
2022/01/13 03:06:11;;;;;;;;;;;;;;;14.30;60.86;103715.56;1054195;28;817;-60
2022/01/13 03:07:01;;;;;;;;;;;;;;;14.31;61.02;103714.63;1054043;28;730;-60
2022/01/13 03:07:53;;;;;;;;;;;;;;;14.30;60.30;103702.16;1058046;28;1104;-60
2022/01/13 03:08:43;;;;;;;;;;;;;;;14.31;60.63;103706.59;1057468;28;932;-60
2022/01/13 03:09:33;;;;;;;;;;;;;;;14.30;60.46;103705.72;1058401;28;715;-59
2022/01/13 03:10:24;;;;;;;;;;;;;;;14.30;60.85;103702.16;1058312;28;808;-60
2022/01/13 03:11:14;;;;;;;;;;;;;;;14.29;60.98;103703.06;1057561;28;795;-60
2022/01/13 03:12:05;;;;;;;;;;;;;;;14.31;60.88;103701.22;1059406;28;715;-59
2022/01/13 03:12:57;;;;;;;;;;;;;;;14.32;60.06;103705.66;1058844;28;1142;-59
2022/01/13 03:13:47;;;;;;;;;;;;;;;14.30;60.12;103699.47;1057852;28;767;-59
2022/01/13 03:14:37;;;;;;;;;;;;;;;14.30;60.80;103700.34;1058123;28;852;-59
2022/01/13 03:15:28;;;;;;;;;;;;;;;14.30;60.86;103700.34;1058445;28;700;-59
2022/01/13 03:16:18;;;;;;;;;;;;;;;14.29;60.63;103697.72;1058307;28;803;-59
2022/01/13 03:17:09;;;;;;;;;;;;;;;14.28;60.51;103704.88;1054582;28;1790;-59
2022/01/13 03:17:59;;;;;;;;;;;;;;;14.26;60.62;103704.06;1046760;28;745;-59
2022/01/13 03:18:49;;;;;;;;;;;;;;;14.27;60.76;103697.75;1047836;28;989;-59
2022/01/13 03:19:40;;;;;;;;;;;;;;;14.28;60.67;103696.84;1054091;28;784;-59
2022/01/13 03:20:30;;;;;;;;;;;;;;;14.27;60.53;103697.75;1054615;28;661;-59
2022/01/13 03:21:21;;;;;;;;;;;;;;;14.27;60.85;103695.09;1050378;28;772;-59
2022/01/13 03:22:11;;;;;;;;;;;;;;;14.26;60.91;103696.00;1049766;28;888;-59
2022/01/13 03:23:04;;;;;;;;;;;;;;;14.27;60.56;103689.72;1049783;28;936;-59
2022/01/13 03:23:55;;;;;;;;;;;;;;;14.28;60.22;103696.84;1053382;28;788;-59
2022/01/13 03:24:45;;;;;;;;;;;;;;;14.27;60.38;103688.84;1054037;28;643;-59
2022/01/13 03:25:36;;;;;;;;;;;;;;;14.27;60.61;103683.47;1054128;28;770;-59
2022/01/13 03:26:26;;;;;;;;;;;;;;;14.27;60.33;103688.84;1054004;28;648;-59
2022/01/13 03:27:23;;;;;;;;;;;;;;;14.28;60.73;103690.59;1054572;28;1560;-60
2022/01/13 03:28:17;;;;;;;;;;;;;;;14.27;61.08;103692.41;1057851;28;754;-59
2022/01/13 03:30:03;;;;;;;;;;;;;;;14.26;60.99;103687.97;1055103;28;794;-60
2022/01/13 03:30:53;;;;;;;;;;;;;;;14.27;60.38;103687.03;1054611;28;731;-59
2022/01/13 03:31:44;;;;;;;;;;;;;;;14.25;60.67;103687.09;1054414;28;773;-60
2022/01/13 03:32:34;;;;;;;;;;;;;;;14.27;60.23;103683.47;1055639;27;724;-60
2022/01/13 03:33:24;;;;;;;;;;;;;;;14.25;60.56;103687.09;1054528;28;877;-59
2022/01/13 03:34:15;;;;;;;;;;;;;;;14.25;60.74;103688.91;1054691;28;691;-59
2022/01/13 03:35:05;;;;;;;;;;;;;;;14.25;60.68;103687.09;1054546;28;620;-59
2022/01/13 03:35:56;;;;;;;;;;;;;;;14.25;60.55;103697.81;1054345;28;708;-59
2022/01/13 03:36:46;;;;;;;;;;;;;;;14.27;60.93;103694.22;1055912;27;1570;-59
2022/01/13 03:37:36;;;;;;;;;;;;;;;14.25;60.87;103695.13;1052706;28;704;-60
2022/01/13 03:38:27;;;;;;;;;;;;;;;14.26;60.99;103696.00;1055095;28;639;-60
2022/01/13 03:39:17;;;;;;;;;;;;;;;14.27;60.67;103695.09;1055088;28;613;-60
2022/01/13 03:40:08;;;;;;;;;;;;;;;14.24;60.70;103696.06;1055023;28;1901;-59
2022/01/13 03:40:58;;;;;;;;;;;;;;;14.25;60.47;103692.44;1054202;28;731;-59
2022/01/13 03:41:49;;;;;;;;;;;;;;;14.24;60.76;103688.00;1055590;27;1121;-59
2022/01/13 03:42:39;;;;;;;;;;;;;;;14.24;60.21;103679.97;1054291;28;672;-60
2022/01/13 03:43:30;;;;;;;;;;;;;;;14.26;60.78;103682.59;1054588;28;657;-59
2022/01/13 03:44:27;;;;;;;;;;;;;;;14.26;60.72;103687.97;1053923;28;847;-59
2022/01/13 03:45:18;;;;;;;;;;;;;;;14.25;60.71;103684.41;1054035;28;816;-59
2022/01/13 03:46:08;;;;;;;;;;;;;;;14.24;61.04;103685.34;1056757;28;1558;-59
2022/01/13 03:47:03;;;;;;;;;;;;;;;14.25;60.71;103688.91;1054314;28;875;-60
2022/01/13 03:47:54;;;;;;;;;;;;;;;14.23;60.25;103688.94;1054599;28;834;-60
2022/01/13 03:48:44;;;;;;;;;;;;;;;14.22;60.42;103686.31;1054392;28;1351;-59
2022/01/13 03:49:35;;;;;;;;;;;;;;;14.24;60.65;103684.44;1054697;28;622;-59
2022/01/13 03:50:25;;;;;;;;;;;;;;;14.24;60.68;103682.66;1054571;28;794;-59
2022/01/13 03:51:15;;;;;;;;;;;;;;;14.23;60.83;103686.25;1054618;28;830;-59
2022/01/13 03:52:06;;;;;;;;;;;;;;;14.22;60.77;103684.50;1054604;28;742;-59
2022/01/13 03:52:56;;;;;;;;;;;;;;;14.23;60.20;103682.69;1054592;28;714;-60
2022/01/13 03:53:47;;;;;;;;;;;;;;;14.23;60.79;103682.69;1054599;28;755;-59
2022/01/13 03:54:38;;;;;;;;;;;;;;;14.20;60.44;103678.31;1054396;28;927;-60
2022/01/13 03:55:29;;;;;;;;;;;;;;;14.20;60.42;103682.81;1054616;28;752;-59
2022/01/13 03:56:19;;;;;;;;;;;;;;;14.20;61.05;103677.44;1054315;28;749;-59
2022/01/13 03:57:09;;;;;;;;;;;;;;;14.20;60.81;103683.69;1054492;28;782;-59
2022/01/13 03:58:00;;;;;;;;;;;;;;;14.21;60.51;103677.38;1054524;28;818;-59
2022/01/13 03:58:50;;;;;;;;;;;;;;;14.22;60.82;103671.09;1054502;28;873;-60
2022/01/13 03:59:41;;;;;;;;;;;;;;;14.22;60.49;103678.25;1054323;28;647;-60
2022/01/13 04:00:38;;;;;;;;;;;;;;;14.21;60.71;103680.06;1054350;28;1898;-59
2022/01/13 04:01:28;;;;;;;;;;;;;;;14.20;60.97;103672.06;1055031;28;628;-60
2022/01/13 04:02:19;;;;;;;;;;;;;;;14.19;60.99;103676.56;1054484;28;712;-61
2022/01/13 04:03:09;;;;;;;;;;;;;;;14.18;60.44;103669.44;1054472;28;757;-59
2022/01/13 04:04:00;;;;;;;;;;;;;;;14.19;60.82;103671.19;1054562;28;741;-59
2022/01/13 04:04:50;;;;;;;;;;;;;;;14.19;60.94;103673.88;1054337;28;745;-60
2022/01/13 04:05:41;;;;;;;;;;;;;;;14.18;60.48;103672.13;1054493;28;784;-59
2022/01/13 04:06:31;;;;;;;;;;;;;;;14.17;60.45;103673.06;1053343;28;767;-59
2022/01/13 04:07:21;;;;;;;;;;;;;;;14.18;60.40;103677.50;1056524;28;1260;-59
2022/01/13 04:08:12;;;;;;;;;;;;;;;14.18;60.43;103679.28;1056787;28;830;-60
2022/01/13 04:09:04;;;;;;;;;;;;;;;14.18;60.83;103682.84;1052868;28;1046;-59
2022/01/13 04:09:54;;;;;;;;;;;;;;;14.19;61.07;103686.41;1056305;28;784;-60
2022/01/13 04:10:45;;;;;;;;;;;;;;;14.20;60.74;103685.50;1057960;28;1079;-59
2022/01/13 04:11:35;;;;;;;;;;;;;;;14.19;60.48;103681.94;1057926;28;1045;-59
2022/01/13 04:12:27;;;;;;;;;;;;;;;14.18;61.01;103690.91;1058001;28;688;-59
2022/01/13 04:13:44;;;;;;;;;;;;;;;14.17;60.21;103683.78;1057342;28;717;-59
2022/01/13 04:14:45;;;;;;;;;;;;;;;14.15;61.01;103674.06;1057352;28;716;-59
2022/01/13 04:15:37;;;;;;;;;;;;;;;14.15;60.93;103674.06;1053780;28;858;-59
2022/01/13 04:16:28;;;;;;;;;;;;;;;14.14;60.31;103678.56;1052988;28;751;-59
2022/01/13 04:17:18;;;;;;;;;;;;;;;14.14;60.64;103678.56;1053801;28;743;-59
2022/01/13 04:18:08;;;;;;;;;;;;;;;14.15;60.65;103676.75;1053826;28;732;-59
2022/01/13 04:19:03;;;;;;;;;;;;;;;14.15;60.62;103674.91;1053880;28;829;-59
2022/01/13 04:19:53;;;;;;;;;;;;;;;14.15;60.56;103669.53;1053124;28;669;-59
2022/01/13 04:20:44;;;;;;;;;;;;;;;14.15;60.52;103680.28;1053793;28;709;-59
2022/01/13 04:21:34;;;;;;;;;;;;;;;14.14;60.45;103675.00;1054246;28;810;-59
2022/01/13 04:22:25;;;;;;;;;;;;;;;14.15;60.91;103674.91;1053215;28;736;-58
2022/01/13 04:23:15;;;;;;;;;;;;;;;14.15;60.78;103674.91;1053800;28;770;-58
2022/01/13 04:24:06;;;;;;;;;;;;;;;14.17;60.48;103677.53;1053765;28;692;-58
2022/01/13 04:24:56;;;;;;;;;;;;;;;14.17;60.76;103677.53;1054236;28;1984;-59
2022/01/13 04:25:46;;;;;;;;;;;;;;;14.15;60.66;103674.06;1054916;28;886;-59
2022/01/13 04:26:37;;;;;;;;;;;;;;;14.15;60.26;103668.69;1054755;28;940;-58
2022/01/13 04:27:29;;;;;;;;;;;;;;;14.15;60.96;103668.69;1055042;28;636;-58
2022/01/13 04:28:28;;;;;;;;;;;;;;;14.15;60.52;103676.75;1054225;28;790;-58
2022/01/13 04:29:27;;;;;;;;;;;;;;;14.15;60.87;103664.19;1054087;28;741;-58
2022/01/13 04:31:08;;;;;;;;;;;;;;;14.13;60.94;103671.44;1054963;28;782;-59
2022/01/13 04:31:58;;;;;;;;;;;;;;;14.14;60.30;103678.56;1054733;28;721;-59
2022/01/13 04:32:49;;;;;;;;;;;;;;;14.15;60.49;103674.06;1055570;28;691;-58
2022/01/13 04:33:40;;;;;;;;;;;;;;;14.12;60.65;103677.72;1054381;28;723;-58
2022/01/13 04:34:30;;;;;;;;;;;;;;;14.13;60.37;103682.16;1053644;28;767;-58
2022/01/13 04:35:21;;;;;;;;;;;;;;;14.14;60.96;103677.69;1053940;28;1866;-58
2022/01/13 04:36:11;;;;;;;;;;;;;;;14.13;61.07;103676.81;1054241;28;892;-59
2022/01/13 04:37:01;;;;;;;;;;;;;;;14.12;60.42;103675.03;1054365;28;1211;-58
2022/01/13 04:37:52;;;;;;;;;;;;;;;14.13;61.23;103670.56;1054245;28;669;-58
2022/01/13 04:38:42;;;;;;;;;;;;;;;14.11;60.99;103672.41;1054251;28;681;-59
2022/01/13 04:39:33;;;;;;;;;;;;;;;14.11;61.40;103677.78;1054324;28;685;-59
2022/01/13 04:40:23;;;;;;;;;;;;;;;14.11;60.24;103673.28;1054097;28;1889;-59
2022/01/13 04:41:22;;;;;;;;;;;;;;;14.11;60.45;103678.66;1054278;28;697;-59
2022/01/13 04:42:14;;;;;;;;;;;;;;;14.13;60.14;103675.91;1054207;28;778;-58
2022/01/13 04:43:04;;;;;;;;;;;;;;;14.12;61.10;103677.72;1054863;28;1926;-59
2022/01/13 04:43:55;;;;;;;;;;;;;;;14.11;60.67;103673.28;1050339;28;1026;-59
2022/01/13 04:44:45;;;;;;;;;;;;;;;14.12;60.22;103677.72;1048601;28;790;-59
2022/01/13 04:45:36;;;;;;;;;;;;;;;14.13;61.02;103675.91;1053097;28;645;-59
2022/01/13 04:46:26;;;;;;;;;;;;;;;14.13;61.04;103675.91;1053608;28;961;-59
2022/01/13 04:47:16;;;;;;;;;;;;;;;14.12;60.43;103672.34;1048890;28;691;-59